Pagrindinis puslapis
METAR-TAF:

METAR-TAF

Oro uostai :

Gorgan, Iranas

platuma: 36-49N, ilguma: 054-28E, Aukštis: 155 m

Dabartinis oras

Ataskaita buvo paskelbta 1 valandą ir 4 minutes, ne 12:00 UTC
Vėjas 8 kt iš Vakarų
Temperatūra 26°C
Drėgmė 61%
Slėgis 1015 hPa
Matomumas 10 km arba daugiau
Išsisklaidę debesys ne aukštis 2500 ft
Su prošvaistėmis ne aukštis 10000 ft

METAR: OING 311200Z 26008KT 9999 SCT025 BKN100 26/18 Q1015 NOSIG

Laikas: 17:34 (13:04 UTC)


TAF: trūkstamas

Orai ataskaitas ir orų prognozės (METAR, TAF).

turimą stotys yra geltonos ir raudonos taškus žemėlapyje.

Perkelti pele per norėdami pamatyti stoties vardą.

Tada spustelėkite, norėdami matyti oro stebėjimo ir prognozės.

Norėdami pakeisti žemėlapį: spustelėkite ant žalios mygtukų su juodo kryžiaus žemyn,; žalią mygtuką su brūkšneliu, jei norite nutolinti; arba žalių rodyklių gretimoms žemėlapius.


METAR-TAF: